createdAt,value
2022-08-07T00:00:57.167Z,2.70
2022-08-07T00:05:56.803Z,2.15
2022-08-07T00:10:58.270Z,2.45
2022-08-07T00:15:56.031Z,2.10
2022-08-07T00:21:08.298Z,2.03
2022-08-07T00:26:59.258Z,2.22
2022-08-07T00:31:41.497Z,2.28
2022-08-07T00:36:42.667Z,3.33
2022-08-07T00:41:53.199Z,2.30
2022-08-07T00:46:51.947Z,2.10
2022-08-07T00:51:58.354Z,2.33
2022-08-07T00:56:56.096Z,2.00
2022-08-07T01:01:57.845Z,2.28
2022-08-07T01:06:56.813Z,2.55
2022-08-07T01:12:09.811Z,2.45
2022-08-07T01:17:13.407Z,2.50
2022-08-07T01:22:16.202Z,2.53
2022-08-07T01:27:20.391Z,2.20
2022-08-07T01:32:19.170Z,2.80
2022-08-07T01:37:20.291Z,2.80
2022-08-07T01:42:39.718Z,2.67
2022-08-07T01:48:20.602Z,2.60
2022-08-07T01:52:56.689Z,3.08
2022-08-07T01:58:05.901Z,2.92
2022-08-07T02:03:21.916Z,3.20
2022-08-07T02:08:26.577Z,3.40
2022-08-07T02:13:56.646Z,3.22
2022-08-07T02:18:47.169Z,3.08
2022-08-07T02:23:46.360Z,3.08
2022-08-07T02:28:45.380Z,3.35
2022-08-07T02:34:01.788Z,3.58
2022-08-07T02:39:09.491Z,3.60
2022-08-07T02:44:16.851Z,3.20
2022-08-07T02:49:55.786Z,3.05
2022-08-07T02:54:34.217Z,3.65
2022-08-07T02:59:33.150Z,3.35
2022-08-07T03:04:31.334Z,2.88
2022-08-07T03:09:43.698Z,3.67
2022-08-07T03:14:48.559Z,3.38
2022-08-07T03:19:55.179Z,3.33
2022-08-07T03:24:53.281Z,3.70
2022-08-07T03:29:52.798Z,3.10
2022-08-07T03:35:16.801Z,3.97
2022-08-07T03:40:17.042Z,3.35
2022-08-07T03:45:29.979Z,3.53
2022-08-07T03:50:30.195Z,3.60
2022-08-07T03:55:42.766Z,3.63
2022-08-07T04:00:53.297Z,3.60
2022-08-07T04:05:58.629Z,4.03
2022-08-07T04:12:23.605Z,3.35
2022-08-07T04:16:14.319Z,3.15
2022-08-07T04:21:31.120Z,3.40
2022-08-07T04:26:30.735Z,2.65
2022-08-07T04:32:02.194Z,3.47
2022-08-07T04:36:49.422Z,3.00
2022-08-07T04:41:50.396Z,3.20
2022-08-07T04:48:01.058Z,4.00
2022-08-07T04:53:27.714Z,4.25
2022-08-07T05:04:18.733Z,2.78
2022-08-07T05:09:54.450Z,3.13
2022-08-07T05:15:04.351Z,3.33
2022-08-07T05:20:07.764Z,2.75
2022-08-07T05:25:11.822Z,3.75
2022-08-07T05:30:30.240Z,3.45
2022-08-07T05:35:41.784Z,3.78
2022-08-07T05:40:50.632Z,3.57
2022-08-07T05:45:50.119Z,3.50
2022-08-07T05:50:54.198Z,3.47
2022-08-07T05:56:03.085Z,2.90
2022-08-07T06:01:05.058Z,2.92
2022-08-07T06:06:03.580Z,3.90
2022-08-07T06:11:03.849Z,4.30
2022-08-07T06:16:03.591Z,2.75
2022-08-07T06:22:16.918Z,3.47
2022-08-07T06:26:19.754Z,3.45
2022-08-07T06:31:18.717Z,4.38
2022-08-07T06:36:34.880Z,3.63
2022-08-07T06:42:13.374Z,3.28
2022-08-07T06:47:15.189Z,3.42
2022-08-07T06:52:16.040Z,3.58
2022-08-07T06:57:13.820Z,3.85
2022-08-07T07:02:49.253Z,3.13
2022-08-07T07:07:59.315Z,3.10
2022-08-07T07:13:56.245Z,2.90
2022-08-07T07:18:48.110Z,2.47
2022-08-07T07:24:08.529Z,3.47
2022-08-07T07:29:56.761Z,2.45
2022-08-07T07:34:31.981Z,2.53
2022-08-07T07:39:31.219Z,2.78
2022-08-07T07:44:49.679Z,3.00
2022-08-07T07:50:35.012Z,2.13
2022-08-07T07:55:10.917Z,2.60
2022-08-07T08:00:10.641Z,2.63
2022-08-07T08:05:11.557Z,2.47
2022-08-07T08:10:14.919Z,2.65
2022-08-07T08:15:43.602Z,2.47
2022-08-07T08:20:54.596Z,2.10
2022-08-07T08:26:14.583Z,2.13
2022-08-07T08:31:29.879Z,2.38
2022-08-07T08:36:41.098Z,2.70
2022-08-07T08:42:09.269Z,2.55
2022-08-07T08:47:17.332Z,2.72
2022-08-07T08:52:24.665Z,2.80
2022-08-07T08:57:38.589Z,2.85
2022-08-07T09:02:52.622Z,3.03
2022-08-07T09:08:17.818Z,2.55
2022-08-07T09:13:39.576Z,1.90
2022-08-07T09:18:58.921Z,2.70
2022-08-07T09:24:53.916Z,2.33
2022-08-07T09:30:05.877Z,2.15
2022-08-07T09:36:02.891Z,2.53
2022-08-07T09:41:04.442Z,2.95
2022-08-07T09:47:42.328Z,1.95
2022-08-07T09:52:34.302Z,1.90
2022-08-07T09:57:46.525Z,2.08
2022-08-07T10:02:55.240Z,2.50
2022-08-07T10:08:27.860Z,1.92
2022-08-07T10:14:01.225Z,2.00
2022-08-07T10:19:17.500Z,2.22
2022-08-07T10:24:42.944Z,2.35
2022-08-07T10:29:51.773Z,2.15
2022-08-07T10:34:59.460Z,2.13
2022-08-07T10:40:12.839Z,2.90
2022-08-07T10:45:57.427Z,2.00
2022-08-07T10:50:50.331Z,1.95
2022-08-07T10:56:31.375Z,2.10
2022-08-07T11:02:27.692Z,2.60
2022-08-07T11:08:02.669Z,2.03
2022-08-07T11:13:42.479Z,2.45
2022-08-07T11:18:35.707Z,1.58
2022-08-07T11:24:08.526Z,2.42
2022-08-07T11:29:13.288Z,2.00
2022-08-07T11:34:46.083Z,2.22
2022-08-07T11:40:09.261Z,1.58
2022-08-07T11:45:35.860Z,2.33
2022-08-07T11:51:10.578Z,2.00
2022-08-07T11:57:14.020Z,2.05
2022-08-07T12:02:20.746Z,1.98
2022-08-07T12:08:03.696Z,2.08
2022-08-07T12:13:11.284Z,2.00
2022-08-07T12:18:29.832Z,2.40
2022-08-07T12:24:07.466Z,2.63
2022-08-07T12:29:04.843Z,2.28
2022-08-07T12:34:04.126Z,2.30
2022-08-07T12:39:42.098Z,2.30
2022-08-07T12:44:29.470Z,2.00
2022-08-07T12:49:44.188Z,2.10
2022-08-07T12:55:24.924Z,2.40
2022-08-07T13:01:02.982Z,2.43
2022-08-07T13:06:21.554Z,2.50
2022-08-07T13:12:03.566Z,1.85
2022-08-07T13:17:12.894Z,2.25
2022-08-07T13:22:53.330Z,1.95
2022-08-07T13:28:14.177Z,2.35
2022-08-07T13:34:31.829Z,2.03
2022-08-07T13:38:47.271Z,2.00
2022-08-07T13:43:52.783Z,1.95
2022-08-07T13:48:59.368Z,2.03
2022-08-07T13:54:16.487Z,1.70
2022-08-07T13:59:27.179Z,1.90
2022-08-07T14:04:29.709Z,2.17
2022-08-07T14:10:01.297Z,2.20
2022-08-07T14:15:00.683Z,2.07
2022-08-07T14:20:43.429Z,2.08
2022-08-07T14:25:29.372Z,1.80
2022-08-07T14:30:40.699Z,2.08
2022-08-07T14:35:45.292Z,2.30
2022-08-07T14:40:49.509Z,1.58
2022-08-07T14:45:49.063Z,2.08
2022-08-07T14:50:51.175Z,2.40
2022-08-07T15:01:22.043Z,2.15
2022-08-07T15:06:27.789Z,2.08
2022-08-07T15:11:52.879Z,2.10
2022-08-07T15:17:00.567Z,2.00
2022-08-07T15:22:04.708Z,2.40
2022-08-07T15:27:10.064Z,2.00
2022-08-07T15:32:11.733Z,2.22
2022-08-07T15:37:11.468Z,2.30
2022-08-07T15:42:44.825Z,2.17
2022-08-07T15:48:01.318Z,2.15
2022-08-07T15:53:05.042Z,1.83
2022-08-07T15:58:04.302Z,2.00
2022-08-07T16:03:05.209Z,2.22
2022-08-07T16:08:33.151Z,2.20
2022-08-07T16:14:03.184Z,1.83
2022-08-07T16:19:42.541Z,2.58
2022-08-07T16:25:52.705Z,2.00
2022-08-07T16:31:05.728Z,1.83
2022-08-07T16:36:19.954Z,2.25
2022-08-07T16:41:23.783Z,1.80
2022-08-07T16:47:07.621Z,2.75
2022-08-07T16:52:51.447Z,2.17
2022-08-07T16:58:15.967Z,1.83
2022-08-07T17:03:57.767Z,2.38
2022-08-07T17:14:18.033Z,2.28
2022-08-07T17:20:02.033Z,3.53
2022-08-07T17:25:04.923Z,2.42
2022-08-07T17:30:14.046Z,2.65
2022-08-07T17:35:51.215Z,2.15
2022-08-07T17:42:03.689Z,3.90
2022-08-07T17:47:42.035Z,2.53
2022-08-07T17:52:39.643Z,2.85
2022-08-07T17:57:59.276Z,3.20
2022-08-07T18:04:04.392Z,2.83
2022-08-07T18:09:05.407Z,2.90
2022-08-07T18:14:19.475Z,3.50
2022-08-07T18:21:09.698Z,3.38
2022-08-07T18:24:51.594Z,3.40
2022-08-07T18:30:05.841Z,3.72
2022-08-07T18:35:16.003Z,3.83
2022-08-07T18:40:59.812Z,3.58
2022-08-07T18:46:27.026Z,3.05
2022-08-07T18:52:37.823Z,3.33
2022-08-07T18:57:30.732Z,3.33
2022-08-07T19:02:42.900Z,3.15
2022-08-07T19:07:52.936Z,3.35
2022-08-07T19:13:10.154Z,3.25
2022-08-07T19:18:44.950Z,3.05
2022-08-07T19:23:58.110Z,3.50
2022-08-07T19:30:57.947Z,3.20
2022-08-07T19:34:32.594Z,3.33
2022-08-07T19:39:56.541Z,3.42
2022-08-07T19:44:55.836Z,3.70
2022-08-07T19:49:56.389Z,3.10
2022-08-07T19:54:57.472Z,3.70
2022-08-07T20:00:11.993Z,3.30
2022-08-07T20:05:31.661Z,3.20
2022-08-07T20:11:02.166Z,2.95
2022-08-07T20:16:03.906Z,3.55
2022-08-07T20:21:14.244Z,3.10
2022-08-07T20:26:29.944Z,3.33
2022-08-07T20:31:31.636Z,3.60
2022-08-07T20:36:32.589Z,3.40
2022-08-07T20:41:38.393Z,3.50
2022-08-07T20:46:43.731Z,3.45
2022-08-07T20:51:50.203Z,3.47
2022-08-07T20:56:52.894Z,3.75
2022-08-07T21:01:55.335Z,3.92
2022-08-07T21:07:04.419Z,4.05
2022-08-07T21:12:15.089Z,3.42
2022-08-07T21:18:03.626Z,3.40
2022-08-07T21:22:44.772Z,3.90
2022-08-07T21:28:18.973Z,3.33
2022-08-07T21:34:00.592Z,4.00
2022-08-07T21:39:46.590Z,4.25
2022-08-07T21:44:51.139Z,4.55
2022-08-07T21:50:02.319Z,5.20
2022-08-07T21:55:19.499Z,4.47
2022-08-07T22:00:25.868Z,3.72
2022-08-07T22:05:44.545Z,4.43
2022-08-07T22:16:43.356Z,3.88
2022-08-07T22:22:05.066Z,3.35
2022-08-07T22:27:13.058Z,3.80
2022-08-07T22:32:27.125Z,4.05
2022-08-07T22:38:03.432Z,3.65
2022-08-07T22:43:13.617Z,3.42
2022-08-07T22:48:54.705Z,3.45
2022-08-07T22:54:09.218Z,3.63
2022-08-07T22:59:20.165Z,3.80
2022-08-07T23:04:57.798Z,4.07
2022-08-07T23:10:36.477Z,2.97
2022-08-07T23:16:07.318Z,3.58
2022-08-07T23:21:11.911Z,4.20
2022-08-07T23:26:35.579Z,3.63
2022-08-07T23:34:23.251Z,4.25
2022-08-07T23:38:01.111Z,3.75
2022-08-07T23:43:18.555Z,3.67
2022-08-07T23:48:25.206Z,3.58
2022-08-07T23:53:53.868Z,3.80
